Time,TemperatureF,DewpointF,PressureIn,WindDirection,WindDirectionDegrees,WindSpeedMPH,WindSpeedGustMPH,Humidity,HourlyPrecipIn,Conditions,Clouds,dailyrainin,SoftwareType,DateUTC
2013-01-09 00:04:00,29.6,26.8,30.40,North,355,0.0,0.0,89,0.00,,,1.15,Wunderground v.1.15,2013-01-09 05:04:00,
2013-01-09 00:09:00,29.3,26.7,30.40,North,355,0.0,0.0,90,0.00,,,1.15,Wunderground v.1.15,2013-01-09 05:09:00,
2013-01-09 00:14:00,29.2,26.6,30.40,North,355,0.0,0.0,90,0.00,,,1.15,Wunderground v.1.15,2013-01-09 05:14:00,
2013-01-09 00:24:00,29.1,26.8,30.39,North,355,0.0,0.0,91,0.00,,,1.15,Wunderground v.1.15,2013-01-09 05:24:00,
2013-01-09 00:29:00,29.0,26.7,30.39,North,355,0.0,0.0,91,0.00,,,1.15,Wunderground v.1.15,2013-01-09 05:29:00,
2013-01-09 00:34:00,28.7,26.4,30.39,North,355,0.0,0.0,91,0.00,,,1.15,Wunderground v.1.15,2013-01-09 05:34:00,
2013-01-09 00:44:00,28.1,25.5,30.39,North,355,0.0,0.0,90,0.00,,,1.15,Wunderground v.1.15,2013-01-09 05:44:00,
2013-01-09 00:49:00,27.9,25.6,30.39,North,355,0.0,0.0,91,0.00,,,1.15,Wunderground v.1.15,2013-01-09 05:49:00,
2013-01-09 00:54:00,27.8,25.5,30.39,North,355,0.0,0.0,91,0.00,,,1.15,Wunderground v.1.15,2013-01-09 05:54:00,
2013-01-09 00:59:00,27.8,25.5,30.39,North,355,0.0,0.0,91,0.00,,,1.15,Wunderground v.1.15,2013-01-09 05:59:00,
2013-01-09 01:09:00,27.4,25.1,30.40,North,355,0.0,0.0,91,0.00,,,1.15,Wunderground v.1.15,2013-01-09 06:09:00,
2013-01-09 01:14:00,27.0,24.7,30.40,North,355,0.0,0.0,91,0.00,,,1.15,Wunderground v.1.15,2013-01-09 06:14:00,
2013-01-09 01:24:00,27.5,25.5,30.40,North,355,0.0,0.0,92,0.00,,,1.15,Wunderground v.1.15,2013-01-09 06:24:00,
2013-01-09 01:34:00,27.3,25.3,30.40,North,355,0.0,0.0,92,0.00,,,1.15,Wunderground v.1.15,2013-01-09 06:34:00,
2013-01-09 01:39:00,27.1,25.1,30.40,North,355,0.0,0.0,92,0.00,,,1.15,Wunderground v.1.15,2013-01-09 06:39:00,
2013-01-09 01:44:00,27.2,25.2,30.40,North,355,0.0,0.0,92,0.00,,,1.15,Wunderground v.1.15,2013-01-09 06:44:00,
2013-01-09 01:54:00,27.3,25.3,30.40,North,355,0.0,0.0,92,0.00,,,1.15,Wunderground v.1.15,2013-01-09 06:54:00,
2013-01-09 01:59:00,27.3,25.3,30.40,North,355,0.0,0.0,92,0.00,,,1.15,Wunderground v.1.15,2013-01-09 06:59:00,
2013-01-09 02:04:00,27.7,25.9,30.40,North,355,0.0,0.0,93,0.00,,,1.15,Wunderground v.1.15,2013-01-09 07:04:00,
2013-01-09 02:09:00,27.9,26.1,30.40,North,355,0.0,0.0,93,0.00,,,1.15,Wunderground v.1.15,2013-01-09 07:09:00,
2013-01-09 02:14:00,27.9,26.1,30.40,North,355,0.0,0.0,93,0.00,,,1.15,Wunderground v.1.15,2013-01-09 07:14:00,
2013-01-09 02:24:00,27.3,25.3,30.40,North,355,0.0,0.0,92,0.00,,,1.15,Wunderground v.1.15,2013-01-09 07:24:00,
2013-01-09 02:34:00,26.8,24.8,30.39,North,355,0.0,0.0,92,0.00,,,1.15,Wunderground v.1.15,2013-01-09 07:34:00,
2013-01-09 02:39:00,26.4,24.4,30.39,North,355,0.0,0.0,92,0.00,,,1.15,Wunderground v.1.15,2013-01-09 07:39:00,
2013-01-09 02:44:00,26.3,24.3,30.39,North,355,0.0,0.0,92,0.00,,,1.15,Wunderground v.1.15,2013-01-09 07:44:00,
2013-01-09 02:54:00,25.8,23.8,30.40,North,355,0.0,0.0,92,0.00,,,0.00,Wunderground v.1.15,2013-01-09 07:54:00,
2013-01-09 02:59:00,25.6,23.6,30.40,North,355,0.0,0.0,92,0.00,,,0.00,Wunderground v.1.15,2013-01-09 07:59:00,
2013-01-09 03:09:00,25.3,23.3,30.39,North,355,0.0,0.0,92,0.00,,,0.00,Wunderground v.1.15,2013-01-09 08:09:00,
2013-01-09 03:18:00,25.3,23.3,30.39,North,355,0.0,0.0,92,0.00,,,0.00,Wunderground v.1.15,2013-01-09 08:18:00,
2013-01-09 03:23:00,25.4,23.7,30.39,North,355,0.0,0.0,93,0.00,,,0.00,Wunderground v.1.15,2013-01-09 08:23:00,
2013-01-09 03:28:00,25.3,23.3,30.39,North,355,0.0,0.0,92,0.00,,,0.00,Wunderground v.1.15,2013-01-09 08:28:00,
2013-01-09 03:34:00,25.5,23.8,30.39,North,355,0.0,0.0,93,0.00,,,0.00,Wunderground v.1.15,2013-01-09 08:34:00,
2013-01-09 10:39:00,45.1,37.3,30.36,North,355,0.0,0.0,74,0.00,,,0.00,Wunderground v.1.15,2013-01-09 15:39:00,
2013-01-09 10:49:00,46.1,35.7,30.35,North,355,0.0,0.0,67,0.00,,,0.00,Wunderground v.1.15,2013-01-09 15:49:00,
2013-01-09 10:54:00,46.3,35.2,30.34,North,355,0.0,0.0,65,0.00,,,0.00,Wunderground v.1.15,2013-01-09 15:54:00,
2013-01-09 10:59:00,46.4,34.9,30.34,North,355,0.0,0.0,64,0.00,,,0.00,Wunderground v.1.15,2013-01-09 15:59:00,
2013-01-09 11:04:00,46.4,34.5,30.34,North,355,0.0,0.0,63,0.00,,,0.00,Wunderground v.1.15,2013-01-09 16:04:00,
2013-01-09 11:09:00,46.3,34.4,30.34,North,355,0.0,0.0,63,0.00,,,0.00,Wunderground v.1.15,2013-01-09 16:09:00,
2013-01-09 11:14:00,46.3,35.2,30.33,North,355,0.0,0.0,65,0.00,,,0.00,Wunderground v.1.15,2013-01-09 16:14:00,
2013-01-09 11:23:00,46.2,34.7,30.32,North,355,0.0,0.0,64,0.00,,,0.00,Wunderground v.1.15,2013-01-09 16:23:00,
2013-01-09 11:33:00,46.3,35.9,30.31,North,355,0.0,0.0,67,0.00,,,0.00,Wunderground v.1.15,2013-01-09 16:33:00,
2013-01-09 11:38:00,46.1,35.7,30.31,North,355,0.0,0.0,67,0.00,,,0.00,Wunderground v.1.15,2013-01-09 16:38:00,
2013-01-09 11:48:00,45.9,35.6,30.30,North,355,0.0,0.0,67,0.00,,,0.00,Wunderground v.1.15,2013-01-09 16:48:00,
2013-01-09 11:58:00,46.1,36.1,30.28,North,355,1.0,1.0,68,0.00,,,0.00,Wunderground v.1.15,2013-01-09 16:58:00,
2013-01-09 12:08:00,46.2,36.2,30.27,North,355,1.0,5.0,68,0.00,,,0.00,Wunderground v.1.15,2013-01-09 17:08:00,
2013-01-09 12:18:00,46.5,36.9,30.27,NW,325,1.0,5.0,69,0.00,,,0.00,Wunderground v.1.15,2013-01-09 17:18:00,
2013-01-09 12:23:00,46.5,37.2,30.26,NW,322,1.0,5.0,70,0.00,,,0.00,Wunderground v.1.15,2013-01-09 17:23:00,
2013-01-09 12:33:00,46.9,38.7,30.26,NNW,332,1.0,5.0,73,0.00,,,0.00,Wunderground v.1.15,2013-01-09 17:33:00,
2013-01-09 12:39:00,47.2,39.7,30.26,NNW,346,3.0,3.0,75,0.00,,,0.00,Wunderground v.1.15,2013-01-09 17:39:00,
2013-01-09 12:44:00,47.2,39.7,30.26,NW,324,3.0,5.0,75,0.00,,,0.00,Wunderground v.1.15,2013-01-09 17:44:00,
2013-01-09 12:49:00,47.2,39.7,30.26,NW,324,2.0,5.0,75,0.00,,,0.00,Wunderground v.1.15,2013-01-09 17:49:00,
2013-01-09 12:59:00,-999.9,-99.9,30.25,North,32767,-999.0,5.0,255,-99.99,,,0.00,Wunderground v.1.15,2013-01-09 17:59:00,
2013-01-09 13:04:00,-999.9,-99.9,30.25,North,32767,-999.0,5.0,255,-99.99,,,0.00,Wunderground v.1.15,2013-01-09 18:04:00,
2013-01-09 13:09:00,-999.9,-99.9,30.25,North,32767,-999.0,5.0,255,-99.99,,,0.00,Wunderground v.1.15,2013-01-09 18:09:00,
2013-01-09 13:14:00,-999.9,-99.9,30.24,North,32767,-999.0,5.0,255,-99.99,,,0.00,Wunderground v.1.15,2013-01-09 18:14:00,
2013-01-09 13:19:00,-999.9,-99.9,30.24,North,32767,-999.0,5.0,255,-99.99,,,0.00,Wunderground v.1.15,2013-01-09 18:19:00,
2013-01-09 13:29:00,48.3,41.1,30.23,NNW,334,0.0,5.0,76,0.00,,,0.00,Wunderground v.1.15,2013-01-09 18:29:00,
2013-01-09 13:34:00,48.3,41.1,30.23,NNW,337,1.0,5.0,76,0.00,,,0.00,Wunderground v.1.15,2013-01-09 18:34:00,
2013-01-09 13:44:00,48.3,40.7,30.23,NW,306,3.0,11.0,75,0.00,,,0.00,Wunderground v.1.15,2013-01-09 18:44:00,
2013-01-09 13:49:00,48.7,40.8,30.24,NNW,346,5.0,5.0,74,0.00,,,0.00,Wunderground v.1.15,2013-01-09 18:49:00,
2013-01-09 13:54:00,48.8,40.5,30.25,NNW,340,8.0,8.0,73,0.00,,,0.00,Wunderground v.1.15,2013-01-09 18:54:00,
2013-01-09 13:59:00,48.8,40.2,30.25,North,355,7.0,7.0,72,0.00,,,0.00,Wunderground v.1.15,2013-01-09 18:59:00,
2013-01-09 14:04:00,48.8,40.2,30.24,NNE,13,7.0,7.0,72,0.00,,,0.00,Wunderground v.1.15,2013-01-09 19:04:00,
2013-01-09 14:09:00,48.8,40.2,30.25,North,360,6.0,8.0,72,0.00,,,0.00,Wunderground v.1.15,2013-01-09 19:09:00,
2013-01-09 14:19:00,48.7,39.7,30.25,NNW,340,7.0,7.0,71,0.00,,,0.00,Wunderground v.1.15,2013-01-09 19:19:00,
2013-01-09 14:24:00,48.7,39.7,30.25,NNW,340,6.0,7.0,71,0.00,,,0.00,Wunderground v.1.15,2013-01-09 19:24:00,
2013-01-09 14:29:00,-999.9,-99.9,30.26,North,32767,-999.0,5.0,255,-99.99,,,0.00,Wunderground v.1.15,2013-01-09 19:29:00,
2013-01-09 14:34:00,-999.9,-99.9,30.25,North,32767,-999.0,5.0,255,-99.99,,,0.00,Wunderground v.1.15,2013-01-09 19:34:00,
2013-01-09 14:39:00,-999.9,-99.9,30.24,North,32767,-999.0,5.0,255,-99.99,,,0.00,Wunderground v.1.15,2013-01-09 19:39:00,
2013-01-09 14:44:00,48.6,39.3,30.24,North,5,5.0,5.0,70,0.00,,,0.00,Wunderground v.1.15,2013-01-09 19:44:00,
2013-01-09 14:53:00,48.5,39.5,30.22,NNW,348,6.0,8.0,71,0.00,,,0.00,Wunderground v.1.15,2013-01-09 19:53:00,
2013-01-09 14:59:00,48.5,39.5,30.22,NNW,339,7.0,7.0,71,0.00,,,0.00,Wunderground v.1.15,2013-01-09 19:59:00,
2013-01-09 15:04:00,48.2,39.6,30.22,North,350,7.0,7.0,72,0.00,,,0.00,Wunderground v.1.15,2013-01-09 20:04:00,
2013-01-09 15:09:00,48.1,39.5,30.21,NNW,339,6.0,7.0,72,0.00,,,0.00,Wunderground v.1.15,2013-01-09 20:09:00,
2013-01-09 15:19:00,47.8,39.2,30.19,NW,317,5.0,5.0,72,0.00,,,0.00,Wunderground v.1.15,2013-01-09 20:19:00,
2013-01-09 15:29:00,47.5,38.9,30.17,NW,313,1.0,1.0,72,0.00,,,0.01,Wunderground v.1.15,2013-01-09 20:29:00,
2013-01-09 15:34:00,47.4,39.2,30.16,WNW,295,1.0,5.0,73,0.00,,,0.01,Wunderground v.1.15,2013-01-09 20:34:00,
2013-01-09 15:39:00,47.2,39.0,30.17,NNW,327,2.0,5.0,73,0.00,,,0.01,Wunderground v.1.15,2013-01-09 20:39:00,
2013-01-09 15:49:00,47.0,38.8,30.15,NW,325,3.0,3.0,73,0.00,,,0.01,Wunderground v.1.15,2013-01-09 20:49:00,
2013-01-09 15:58:00,46.5,39.3,30.12,WNW,287,2.0,2.0,76,0.00,,,0.01,Wunderground v.1.15,2013-01-09 20:58:00,
2013-01-09 16:03:00,46.3,39.8,30.16,NE,36,3.0,3.0,78,0.00,,,0.01,Wunderground v.1.15,2013-01-09 21:03:00,
2013-01-09 16:08:00,46.0,39.9,30.16,NW,321,3.0,7.0,79,0.00,,,0.01,Wunderground v.1.15,2013-01-09 21:08:00,
2013-01-09 16:13:00,46.0,40.2,30.15,NNW,332,5.0,7.0,80,0.00,,,0.01,Wunderground v.1.15,2013-01-09 21:13:00,
2013-01-09 16:18:00,45.9,40.4,30.14,NW,307,6.0,6.0,81,0.00,,,0.02,Wunderground v.1.15,2013-01-09 21:18:00,
2013-01-09 16:23:00,45.8,40.3,30.12,NW,317,5.0,6.0,81,0.19,,,0.04,Wunderground v.1.15,2013-01-09 21:23:00,
2013-01-09 16:34:00,45.7,40.5,30.12,North,355,5.0,8.0,82,0.05,,,0.05,Wunderground v.1.15,2013-01-09 21:34:00,
2013-01-09 16:44:00,45.6,41.0,30.14,NNW,327,7.0,10.0,84,0.12,,,0.07,Wunderground v.1.15,2013-01-09 21:44:00,
2013-01-09 16:54:00,45.6,41.0,30.13,NNW,343,7.0,8.0,84,0.05,,,0.07,Wunderground v.1.15,2013-01-09 21:54:00,
2013-01-09 16:59:00,45.6,41.0,30.12,NNW,329,8.0,8.0,84,0.04,,,0.07,Wunderground v.1.15,2013-01-09 21:59:00,
2013-01-09 17:04:00,45.6,41.0,30.12,North,355,7.0,9.0,84,0.00,,,0.07,Wunderground v.1.15,2013-01-09 22:04:00,
2013-01-09 17:09:00,45.7,41.1,30.13,NW,319,8.0,8.0,84,0.00,,,0.07,Wunderground v.1.15,2013-01-09 22:09:00,
2013-01-09 17:19:00,45.9,41.3,30.13,North,355,8.0,13.0,84,0.07,,,0.09,Wunderground v.1.15,2013-01-09 22:19:00,
2013-01-09 17:24:00,46.1,41.5,30.13,NNW,338,8.0,13.0,84,0.05,,,0.09,Wunderground v.1.15,2013-01-09 22:24:00,
2013-01-09 17:29:00,46.2,41.6,30.13,North,5,8.0,8.0,84,0.00,,,0.09,Wunderground v.1.15,2013-01-09 22:29:00,
2013-01-09 17:39:00,46.6,41.7,30.14,NNW,342,8.0,8.0,83,0.00,,,0.09,Wunderground v.1.15,2013-01-09 22:39:00,
2013-01-09 17:44:00,46.9,42.0,30.14,North,355,8.0,11.0,83,0.00,,,0.09,Wunderground v.1.15,2013-01-09 22:44:00,
2013-01-09 17:49:00,47.3,42.1,30.14,North,10,7.0,13.0,82,0.12,,,0.10,Wunderground v.1.15,2013-01-09 22:49:00,
2013-01-09 17:54:00,47.6,42.1,30.14,NNW,344,8.0,13.0,81,0.12,,,0.11,Wunderground v.1.15,2013-01-09 22:54:00,
2013-01-09 17:59:00,48.2,42.6,30.15,North,355,9.0,9.0,81,0.28,,,0.15,Wunderground v.1.15,2013-01-09 22:59:00,
2013-01-09 18:09:00,48.9,42.7,30.15,North,360,8.0,8.0,79,0.05,,,0.15,Wunderground v.1.15,2013-01-09 23:09:00,
2013-01-09 18:14:00,49.0,42.8,30.14,NNW,343,8.0,15.0,79,0.22,,,0.16,Wunderground v.1.15,2013-01-09 23:14:00,
2013-01-09 18:19:00,49.0,42.8,30.14,NNW,329,8.0,15.0,79,0.15,,,0.20,Wunderground v.1.15,2013-01-09 23:19:00,
2013-01-09 18:29:00,49.1,42.5,30.14,North,10,8.0,8.0,78,36.00,,,0.26,Wunderground v.1.15,2013-01-09 23:29:00,
2013-01-09 18:34:00,49.4,42.8,30.15,North,5,8.0,15.0,78,0.12,,,0.26,Wunderground v.1.15,2013-01-09 23:34:00,
2013-01-09 18:44:00,49.5,42.6,30.13,NNE,17,7.0,15.0,77,0.04,,,0.26,Wunderground v.1.15,2013-01-09 23:44:00,
2013-01-09 18:54:00,49.8,42.5,30.14,North,5,8.0,18.0,76,0.00,,,0.26,Wunderground v.1.15,2013-01-09 23:54:00,
2013-01-09 19:04:00,49.8,42.2,30.14,NNE,12,8.0,15.0,75,0.07,,,0.29,Wunderground v.1.15,2013-01-10 00:04:00,
2013-01-09 19:14:00,49.9,42.3,30.15,North,360,8.0,15.0,75,0.07,,,0.30,Wunderground v.1.15,2013-01-10 00:14:00,
2013-01-09 19:19:00,49.9,42.3,30.14,North,360,8.0,8.0,75,0.04,,,0.30,Wunderground v.1.15,2013-01-10 00:19:00,
2013-01-09 19:24:00,49.9,42.3,30.15,North,360,8.0,13.0,75,0.00,,,0.30,Wunderground v.1.15,2013-01-10 00:24:00,
2013-01-09 19:33:00,49.9,42.3,30.15,North,11,9.0,15.0,75,0.76,,,0.34,Wunderground v.1.15,2013-01-10 00:33:00,
2013-01-09 19:43:00,49.7,42.1,30.16,North,5,8.0,15.0,75,0.57,,,0.38,Wunderground v.1.15,2013-01-10 00:43:00,
2013-01-09 19:48:00,49.7,42.1,30.16,North,9,9.0,9.0,75,0.31,,,0.41,Wunderground v.1.15,2013-01-10 00:48:00,
2013-01-09 19:54:00,49.4,41.8,30.16,NNE,17,8.0,10.0,75,0.15,,,0.43,Wunderground v.1.15,2013-01-10 00:54:00,
2013-01-09 19:59:00,49.3,41.7,30.16,NNE,30,8.0,15.0,75,0.29,,,0.45,Wunderground v.1.15,2013-01-10 00:59:00,
2013-01-09 20:04:00,49.1,41.5,30.16,NNE,28,7.0,15.0,75,0.09,,,0.45,Wunderground v.1.15,2013-01-10 01:04:00,
2013-01-09 20:13:00,48.8,41.2,30.16,NNE,30,8.0,15.0,75,0.04,,,0.45,Wunderground v.1.15,2013-01-10 01:13:00,
2013-01-09 20:23:00,48.8,41.2,30.16,NNE,24,8.0,15.0,75,0.79,,,0.48,Wunderground v.1.15,2013-01-10 01:23:00,
2013-01-09 20:28:00,48.7,41.1,30.16,NNE,17,8.0,8.0,75,-99.99,,,0.53,Wunderground v.1.15,2013-01-10 01:28:00,
2013-01-09 20:34:00,48.7,40.8,30.15,NNE,16,8.0,15.0,74,0.12,,,0.54,Wunderground v.1.15,2013-01-10 01:34:00,
2013-01-09 20:39:00,48.6,41.0,30.15,NNE,25,8.0,8.0,75,0.06,,,0.54,Wunderground v.1.15,2013-01-10 01:39:00,
2013-01-09 20:49:00,48.4,40.8,30.16,North,355,8.0,15.0,75,0.10,,,0.57,Wunderground v.1.15,2013-01-10 01:49:00,
2013-01-09 20:54:00,48.3,40.7,30.16,North,5,8.0,15.0,75,0.73,,,0.61,Wunderground v.1.15,2013-01-10 01:54:00,
2013-01-09 20:59:00,48.1,40.5,30.16,NE,36,7.0,15.0,75,0.10,,,0.61,Wunderground v.1.15,2013-01-10 01:59:00,
2013-01-09 21:09:00,48.0,40.1,30.15,NNE,23,7.0,7.0,74,0.04,,,0.61,Wunderground v.1.15,2013-01-10 02:09:00,
2013-01-09 21:14:00,48.0,40.1,30.16,NNE,23,7.0,15.0,74,0.00,,,0.61,Wunderground v.1.15,2013-01-10 02:14:00,
2013-01-09 21:19:00,47.9,40.0,30.16,NNE,32,6.0,15.0,74,0.00,,,0.61,Wunderground v.1.15,2013-01-10 02:19:00,
2013-01-09 21:24:00,47.9,39.7,30.16,NE,34,6.0,15.0,73,0.00,,,0.61,Wunderground v.1.15,2013-01-10 02:24:00,
2013-01-09 21:29:00,47.7,39.5,30.16,NNE,28,6.0,6.0,73,0.00,,,0.61,Wunderground v.1.15,2013-01-10 02:29:00,
2013-01-09 21:34:00,47.6,39.7,30.16,NE,34,5.0,15.0,74,0.00,,,0.61,Wunderground v.1.15,2013-01-10 02:34:00,
2013-01-09 21:44:00,47.7,39.1,30.16,NE,44,7.0,15.0,72,0.00,,,0.61,Wunderground v.1.15,2013-01-10 02:44:00,
2013-01-09 21:49:00,47.7,39.1,30.17,NNE,19,7.0,15.0,72,0.00,,,0.61,Wunderground v.1.15,2013-01-10 02:49:00,
2013-01-09 21:59:00,47.7,38.8,30.17,NE,44,7.0,15.0,71,0.00,,,0.61,Wunderground v.1.15,2013-01-10 02:59:00,
2013-01-09 22:04:00,47.7,38.4,30.17,NNE,19,6.0,15.0,70,0.00,,,0.61,Wunderground v.1.15,2013-01-10 03:04:00,
2013-01-09 22:09:00,47.8,38.1,30.17,NNE,23,6.0,15.0,69,0.00,,,0.61,Wunderground v.1.15,2013-01-10 03:09:00,
2013-01-09 22:19:00,47.9,37.5,30.17,NNE,32,7.0,7.0,67,0.00,,,0.61,Wunderground v.1.15,2013-01-10 03:19:00,
2013-01-09 22:24:00,47.6,37.6,30.17,NE,34,5.0,15.0,68,0.00,,,0.61,Wunderground v.1.15,2013-01-10 03:24:00,
2013-01-09 22:34:00,47.9,36.7,30.17,NNE,22,7.0,15.0,65,0.00,,,0.61,Wunderground v.1.15,2013-01-10 03:34:00,
2013-01-09 22:39:00,48.0,36.8,30.17,NE,42,6.0,15.0,65,0.00,,,0.61,Wunderground v.1.15,2013-01-10 03:39:00,
2013-01-09 22:44:00,48.0,36.8,30.17,NNE,22,6.0,15.0,65,0.00,,,0.61,Wunderground v.1.15,2013-01-10 03:44:00,
2013-01-09 22:49:00,48.1,36.5,30.17,NNE,19,7.0,7.0,64,0.00,,,0.61,Wunderground v.1.15,2013-01-10 03:49:00,
2013-01-09 22:59:00,47.9,36.3,30.18,NNE,30,6.0,15.0,64,0.00,,,0.61,Wunderground v.1.15,2013-01-10 03:59:00,
2013-01-09 23:09:00,48.1,35.7,30.17,NNE,20,8.0,8.0,62,0.00,,,0.62,Wunderground v.1.15,2013-01-10 04:09:00,
2013-01-09 23:14:00,47.9,35.5,30.18,North,11,7.0,15.0,62,0.00,,,0.62,Wunderground v.1.15,2013-01-10 04:14:00,
2013-01-09 23:19:00,48.0,35.6,30.17,North,10,7.0,7.0,62,0.54,,,0.65,Wunderground v.1.15,2013-01-10 04:19:00,
2013-01-09 23:28:00,48.1,34.9,30.17,NNE,28,9.0,9.0,60,0.07,,,0.66,Wunderground v.1.15,2013-01-10 04:28:00,
2013-01-09 23:34:00,48.1,34.9,30.18,North,360,9.0,10.0,60,0.05,,,0.66,Wunderground v.1.15,2013-01-10 04:34:00,
2013-01-09 23:38:00,48.0,34.8,30.18,North,5,8.0,8.0,60,0.61,,,0.71,Wunderground v.1.15,2013-01-10 04:38:00,
2013-01-09 23:44:00,48.1,34.9,30.18,North,10,8.0,15.0,60,0.10,,,0.71,Wunderground v.1.15,2013-01-10 04:44:00,
2013-01-09 23:49:00,47.9,34.7,30.18,NNE,18,8.0,8.0,60,0.20,,,0.74,Wunderground v.1.15,2013-01-10 04:49:00,
2013-01-09 23:59:00,47.6,34.8,30.18,North,5,8.0,17.0,61,0.51,,,0.79,Wunderground v.1.15,2013-01-10 04:59:00,